createdAt,value
2023-04-29T00:00:33.880Z,16.24
2023-04-29T00:01:55.619Z,17.87
2023-04-29T00:03:17.759Z,23.08
2023-04-29T00:04:40.446Z,19.59
2023-04-29T00:06:02.895Z,17.01
2023-04-29T00:07:24.294Z,18.17
2023-04-29T00:08:46.610Z,21.77
2023-04-29T00:10:09.840Z,17.42
2023-04-29T00:11:31.368Z,14.34
2023-04-29T00:12:52.829Z,15.57
2023-04-29T00:14:14.655Z,20.30
2023-04-29T00:15:36.034Z,14.81
2023-04-29T00:16:58.179Z,18.49
2023-04-29T00:18:19.922Z,12.63
2023-04-29T00:19:42.925Z,15.04
2023-04-29T00:22:26.708Z,16.66
2023-04-29T00:23:48.383Z,18.14
2023-04-29T00:25:11.814Z,16.82
2023-04-29T00:27:55.633Z,21.44
2023-04-29T00:29:17.477Z,19.33
2023-04-29T00:30:38.953Z,20.06
2023-04-29T00:32:00.949Z,18.90
2023-04-29T00:33:23.059Z,17.49
2023-04-29T00:34:44.582Z,14.43
2023-04-29T00:36:06.919Z,13.81
2023-04-29T00:37:30.040Z,17.06
2023-04-29T00:38:53.239Z,13.07
2023-04-29T00:40:16.776Z,15.46
2023-04-29T00:41:38.555Z,15.91
2023-04-29T00:43:00.369Z,14.05
2023-04-29T00:44:22.661Z,16.10
2023-04-29T00:45:44.685Z,15.41
2023-04-29T00:47:06.833Z,13.92
2023-04-29T00:48:29.001Z,18.54
2023-04-29T00:49:53.208Z,11.81
2023-04-29T00:51:15.140Z,16.02
2023-04-29T00:52:37.302Z,18.62
2023-04-29T00:53:58.890Z,17.89
2023-04-29T00:55:20.926Z,21.26
2023-04-29T00:56:42.974Z,18.20
2023-04-29T00:58:04.995Z,19.03
2023-04-29T00:59:26.470Z,18.17
2023-04-29T01:00:48.231Z,17.66
2023-04-29T01:02:10.382Z,16.25
2023-04-29T01:03:32.095Z,16.99
2023-04-29T01:04:55.534Z,11.74
2023-04-29T01:08:26.100Z,16.78
2023-04-29T01:11:16.193Z,13.02
2023-04-29T01:13:05.247Z,15.80
2023-04-29T01:14:27.545Z,12.87
2023-04-29T01:16:03.355Z,12.92
2023-04-29T01:17:25.847Z,12.63
2023-04-29T01:18:54.166Z,14.42
2023-04-29T01:20:16.701Z,16.04
2023-04-29T01:21:47.345Z,12.81
2023-04-29T01:23:09.695Z,12.66
2023-04-29T01:24:31.096Z,13.27
2023-04-29T01:25:53.076Z,12.65
2023-04-29T01:29:02.246Z,13.32
2023-04-29T01:30:53.314Z,12.06
2023-04-29T01:32:21.500Z,15.15
2023-04-29T01:35:34.969Z,15.47
2023-04-29T01:37:00.211Z,14.26
2023-04-29T01:38:49.114Z,14.64
2023-04-29T01:40:26.689Z,15.41
2023-04-29T01:43:15.475Z,12.59
2023-04-29T01:44:37.636Z,13.78
2023-04-29T01:45:58.717Z,13.03
2023-04-29T01:47:20.569Z,12.84
2023-04-29T01:48:42.396Z,17.13
2023-04-29T01:50:06.599Z,15.04
2023-04-29T01:51:28.666Z,15.95
2023-04-29T01:52:50.695Z,13.49
2023-04-29T01:54:12.197Z,15.30
2023-04-29T01:55:33.992Z,14.46
2023-04-29T01:56:55.958Z,16.44
2023-04-29T01:58:17.342Z,17.63
2023-04-29T01:59:38.421Z,12.11
2023-04-29T02:01:00.396Z,13.21
2023-04-29T02:02:22.858Z,12.64
2023-04-29T02:03:44.885Z,12.74
2023-04-29T02:05:08.856Z,16.02
2023-04-29T02:06:31.678Z,14.46
2023-04-29T02:07:53.736Z,14.80
2023-04-29T02:09:16.066Z,12.52
2023-04-29T02:10:37.091Z,15.65
2023-04-29T02:11:58.899Z,11.42
2023-04-29T02:13:20.272Z,13.28
2023-04-29T02:14:41.996Z,13.31
2023-04-29T02:17:23.734Z,17.46
2023-04-29T02:18:46.044Z,14.92
2023-04-29T02:20:09.183Z,20.06
2023-04-29T02:21:30.955Z,16.05
2023-04-29T02:22:53.249Z,12.26
2023-04-29T02:24:15.370Z,11.23
2023-04-29T02:25:39.084Z,12.07
2023-04-29T02:27:03.917Z,14.93
2023-04-29T02:28:25.652Z,13.51
2023-04-29T02:29:47.217Z,13.77
2023-04-29T02:31:09.247Z,15.86
2023-04-29T02:32:31.080Z,14.81
2023-04-29T02:33:53.244Z,11.84
2023-04-29T02:35:15.488Z,14.46
2023-04-29T02:36:37.526Z,13.77
2023-04-29T02:37:59.065Z,12.69
2023-04-29T02:39:21.264Z,10.61
2023-04-29T02:40:43.506Z,13.32
2023-04-29T02:42:05.616Z,17.66
2023-04-29T02:43:27.109Z,14.38
2023-04-29T02:44:48.065Z,9.82
2023-04-29T02:46:10.574Z,16.03
2023-04-29T02:47:32.288Z,12.36
2023-04-29T02:48:54.514Z,19.43
2023-04-29T02:50:16.131Z,13.39
2023-04-29T02:51:37.795Z,16.71
2023-04-29T02:52:59.787Z,17.66
2023-04-29T02:54:21.468Z,15.27
2023-04-29T02:55:43.103Z,16.19
2023-04-29T02:57:04.837Z,18.48
2023-04-29T02:58:26.580Z,18.55
2023-04-29T02:59:48.780Z,21.10
2023-04-29T03:01:10.830Z,14.05
2023-04-29T03:02:32.798Z,14.18
2023-04-29T03:03:55.068Z,15.05
2023-04-29T03:05:17.181Z,14.59
2023-04-29T03:06:38.751Z,13.04
2023-04-29T03:08:00.871Z,12.80
2023-04-29T03:09:23.723Z,12.98
2023-04-29T03:10:44.954Z,14.43
2023-04-29T03:12:06.721Z,13.53
2023-04-29T03:13:29.650Z,16.34
2023-04-29T03:14:51.737Z,14.03
2023-04-29T03:16:13.362Z,12.07
2023-04-29T03:17:35.145Z,13.69
2023-04-29T03:18:57.162Z,14.86
2023-04-29T03:20:18.745Z,13.23
2023-04-29T03:21:40.165Z,16.38
2023-04-29T03:23:02.172Z,11.89
2023-04-29T03:24:23.601Z,12.42
2023-04-29T03:25:45.203Z,16.21
2023-04-29T03:27:07.194Z,11.78
2023-04-29T03:28:29.098Z,13.61
2023-04-29T03:29:50.585Z,16.07
2023-04-29T03:31:12.372Z,16.60
2023-04-29T03:32:35.519Z,13.24
2023-04-29T03:35:18.645Z,15.53
2023-04-29T03:36:40.741Z,16.82
2023-04-29T03:38:02.731Z,16.89
2023-04-29T03:39:24.309Z,16.49
2023-04-29T03:40:47.021Z,17.53
2023-04-29T03:42:09.235Z,13.56
2023-04-29T03:43:30.666Z,20.78
2023-04-29T03:44:52.186Z,17.73
2023-04-29T03:46:13.960Z,15.02
2023-04-29T03:47:36.460Z,15.56
2023-04-29T03:48:58.524Z,19.59
2023-04-29T03:50:20.998Z,16.31
2023-04-29T03:51:42.848Z,15.56
2023-04-29T03:53:04.257Z,18.99
2023-04-29T03:54:26.216Z,15.65
2023-04-29T03:55:47.820Z,19.74
2023-04-29T03:57:09.415Z,15.69
2023-04-29T03:58:32.347Z,23.87
2023-04-29T03:59:55.599Z,19.76
2023-04-29T04:01:17.037Z,18.13
2023-04-29T04:02:39.153Z,20.02
2023-04-29T04:04:00.914Z,17.27
2023-04-29T04:05:22.825Z,20.65
2023-04-29T04:06:44.934Z,17.44
2023-04-29T04:08:07.156Z,16.93
2023-04-29T04:09:29.204Z,23.46
2023-04-29T04:10:51.264Z,16.76
2023-04-29T04:12:13.214Z,18.16
2023-04-29T04:13:35.326Z,21.84
2023-04-29T04:14:57.171Z,11.83
2023-04-29T04:16:19.362Z,18.83
2023-04-29T04:17:40.991Z,12.97
2023-04-29T04:19:02.201Z,15.38
2023-04-29T04:20:23.757Z,23.42
2023-04-29T04:21:46.144Z,15.84
2023-04-29T04:23:08.179Z,16.72
2023-04-29T04:24:31.127Z,23.38
2023-04-29T04:25:52.286Z,36.27
2023-04-29T04:27:14.145Z,23.58
2023-04-29T04:28:36.184Z,19.32
2023-04-29T04:29:57.730Z,14.52
2023-04-29T04:31:19.705Z,27.50
2023-04-29T04:32:41.336Z,18.54
2023-04-29T04:34:04.951Z,15.22
2023-04-29T04:35:26.682Z,21.24
2023-04-29T04:36:48.847Z,32.14
2023-04-29T04:38:10.417Z,23.54
2023-04-29T04:39:32.524Z,28.26
2023-04-29T04:40:54.370Z,28.12
2023-04-29T04:42:16.004Z,14.66
2023-04-29T04:43:38.167Z,17.39
2023-04-29T04:45:00.008Z,11.73
2023-04-29T04:46:21.618Z,16.67
2023-04-29T04:47:43.314Z,16.28
2023-04-29T04:49:06.389Z,18.97
2023-04-29T04:50:28.194Z,14.78
2023-04-29T04:51:50.121Z,16.22
2023-04-29T04:53:11.122Z,13.66
2023-04-29T04:54:33.699Z,13.52
2023-04-29T04:55:55.723Z,15.16
2023-04-29T04:57:17.444Z,13.77
2023-04-29T04:58:40.384Z,15.95
2023-04-29T05:01:23.620Z,15.89
2023-04-29T05:02:47.395Z,20.48
2023-04-29T05:04:09.169Z,23.92
2023-04-29T05:05:33.261Z,26.40
2023-04-29T05:06:54.964Z,24.41
2023-04-29T05:08:16.830Z,28.73
2023-04-29T05:09:38.152Z,35.52
2023-04-29T05:10:59.788Z,28.22
2023-04-29T05:12:21.722Z,29.57
2023-04-29T05:13:44.611Z,29.04
2023-04-29T05:15:08.127Z,25.55
2023-04-29T05:16:29.782Z,29.09
2023-04-29T05:17:51.022Z,29.72
2023-04-29T05:19:13.040Z,36.75
2023-04-29T05:20:34.457Z,37.70
2023-04-29T05:21:56.031Z,34.34
2023-04-29T05:23:18.105Z,32.21
2023-04-29T05:24:40.394Z,31.41
2023-04-29T05:26:02.338Z,28.61
2023-04-29T05:27:24.496Z,23.28
2023-04-29T05:28:46.508Z,19.50
2023-04-29T05:30:09.118Z,22.89
2023-04-29T05:31:30.881Z,23.23
2023-04-29T05:32:52.457Z,16.00
2023-04-29T05:34:14.139Z,19.94
2023-04-29T05:35:35.189Z,17.76
2023-04-29T05:36:56.619Z,15.19
2023-04-29T05:38:18.577Z,17.78
2023-04-29T05:39:40.364Z,10.38
2023-04-29T05:41:02.698Z,18.11
2023-04-29T05:42:24.982Z,11.38
2023-04-29T05:43:46.550Z,7.89
2023-04-29T05:45:09.889Z,7.56
2023-04-29T05:46:31.855Z,10.48
2023-04-29T05:47:54.114Z,7.62
2023-04-29T05:49:15.696Z,9.43
2023-04-29T05:50:36.721Z,6.64
2023-04-29T05:51:58.232Z,7.39
2023-04-29T05:53:20.214Z,8.89
2023-04-29T05:54:42.304Z,8.29
2023-04-29T05:56:04.128Z,11.03
2023-04-29T05:57:27.375Z,11.81
2023-04-29T05:58:48.772Z,7.83
2023-04-29T06:00:12.842Z,7.45
2023-04-29T06:01:34.885Z,8.43
2023-04-29T06:02:59.057Z,6.99
2023-04-29T06:04:20.149Z,9.00
2023-04-29T06:05:42.987Z,17.73
2023-04-29T06:07:05.866Z,20.96
2023-04-29T06:08:27.177Z,21.02
2023-04-29T06:09:49.308Z,20.84
2023-04-29T06:11:11.233Z,13.72
2023-04-29T06:12:33.107Z,11.59
2023-04-29T06:13:55.220Z,8.81
2023-04-29T06:15:17.737Z,11.29
2023-04-29T06:16:39.923Z,10.23
2023-04-29T06:18:01.452Z,7.29
2023-04-29T06:19:23.009Z,10.32
2023-04-29T06:20:44.371Z,13.59
2023-04-29T06:22:05.847Z,8.56
2023-04-29T06:23:27.380Z,8.13
2023-04-29T06:24:48.881Z,9.48
2023-04-29T06:26:10.608Z,12.04
2023-04-29T06:27:32.188Z,13.70
2023-04-29T06:28:53.215Z,11.81
2023-04-29T06:30:14.257Z,10.91
2023-04-29T06:31:36.546Z,8.18
2023-04-29T06:32:57.612Z,8.91
2023-04-29T06:34:20.027Z,7.27
2023-04-29T06:35:41.098Z,8.24
2023-04-29T06:37:03.479Z,5.73
2023-04-29T06:38:25.274Z,6.79
2023-04-29T06:39:47.044Z,6.89
2023-04-29T06:41:09.149Z,7.40
2023-04-29T06:42:31.519Z,8.11
2023-04-29T06:43:53.503Z,15.04
2023-04-29T06:45:15.083Z,14.46
2023-04-29T06:46:36.541Z,20.60
2023-04-29T06:47:58.149Z,18.46
2023-04-29T06:49:21.679Z,8.74
2023-04-29T06:50:51.879Z,10.08
2023-04-29T06:52:13.427Z,9.78
2023-04-29T06:53:34.579Z,12.94
2023-04-29T06:54:56.538Z,14.62
2023-04-29T06:56:18.578Z,9.97
2023-04-29T06:57:40.331Z,11.85
2023-04-29T06:59:01.928Z,6.26
2023-04-29T07:00:23.231Z,6.47
2023-04-29T07:01:47.089Z,11.02
2023-04-29T07:03:09.133Z,14.12
2023-04-29T07:04:30.635Z,15.81
2023-04-29T07:05:51.626Z,14.15
2023-04-29T07:07:14.034Z,7.15
2023-04-29T07:08:38.264Z,6.07
2023-04-29T07:09:59.806Z,4.66
2023-04-29T07:11:20.840Z,4.44
2023-04-29T07:12:42.253Z,9.42
2023-04-29T07:14:04.464Z,7.13
2023-04-29T07:15:27.627Z,3.75
2023-04-29T07:16:54.008Z,3.50
2023-04-29T07:18:15.539Z,3.59
2023-04-29T07:19:37.662Z,6.60
2023-04-29T07:21:02.233Z,7.14
2023-04-29T07:22:24.351Z,19.50
2023-04-29T07:23:47.542Z,4.18
2023-04-29T07:25:09.519Z,5.91
2023-04-29T07:26:31.298Z,13.07
2023-04-29T07:27:54.470Z,3.83
2023-04-29T07:30:37.242Z,3.87
2023-04-29T07:31:59.052Z,7.95
2023-04-29T07:33:20.507Z,6.06
2023-04-29T07:34:42.640Z,3.45
2023-04-29T07:36:04.499Z,4.81
2023-04-29T07:37:26.244Z,5.11
2023-04-29T07:38:47.825Z,4.12
2023-04-29T07:40:09.505Z,6.21
2023-04-29T07:41:31.947Z,18.11
2023-04-29T07:42:53.314Z,3.42
2023-04-29T07:44:14.882Z,3.88
2023-04-29T07:45:37.217Z,4.62
2023-04-29T07:46:59.399Z,5.70
2023-04-29T07:48:21.249Z,3.23
2023-04-29T07:49:42.791Z,7.78
2023-04-29T07:51:06.094Z,4.21
2023-04-29T07:52:28.088Z,6.87
2023-04-29T07:53:50.251Z,3.58
2023-04-29T07:55:12.358Z,3.59
2023-04-29T07:56:33.646Z,4.14
2023-04-29T07:57:55.489Z,5.31
2023-04-29T07:59:17.209Z,4.13
2023-04-29T08:00:39.362Z,4.00
2023-04-29T08:02:01.482Z,4.65
2023-04-29T08:03:23.780Z,4.43
2023-04-29T08:04:46.182Z,6.19
2023-04-29T08:06:08.686Z,4.88
2023-04-29T08:07:30.273Z,8.01
2023-04-29T08:08:52.769Z,11.22
2023-04-29T08:10:15.027Z,5.31
2023-04-29T08:11:36.892Z,4.56
2023-04-29T08:12:59.301Z,3.87
2023-04-29T08:14:21.189Z,20.34
2023-04-29T08:15:44.302Z,6.67
2023-04-29T08:17:06.574Z,4.62
2023-04-29T08:18:28.280Z,4.90
2023-04-29T08:19:49.760Z,2.89
2023-04-29T08:21:12.660Z,5.21
2023-04-29T08:22:34.465Z,7.71
2023-04-29T08:23:56.586Z,10.63
2023-04-29T08:25:17.857Z,8.02
2023-04-29T08:26:40.662Z,5.25
2023-04-29T08:28:02.054Z,4.16
2023-04-29T08:29:24.064Z,2.73
2023-04-29T08:30:45.942Z,6.88
2023-04-29T08:32:09.243Z,4.71
2023-04-29T08:33:31.145Z,2.78
2023-04-29T08:34:52.927Z,4.94
2023-04-29T08:36:15.614Z,3.90
2023-04-29T08:37:37.592Z,4.21
2023-04-29T08:39:00.730Z,3.54
2023-04-29T08:40:22.428Z,9.42
2023-04-29T08:41:45.007Z,6.13
2023-04-29T08:43:06.577Z,3.36
2023-04-29T08:44:28.097Z,7.27
2023-04-29T08:45:49.669Z,3.67
2023-04-29T08:47:11.913Z,4.27
2023-04-29T08:48:33.816Z,2.58
2023-04-29T08:49:55.194Z,5.86
2023-04-29T08:51:16.987Z,5.01
2023-04-29T08:52:39.106Z,5.09
2023-04-29T08:54:01.369Z,8.60
2023-04-29T08:55:22.525Z,8.34
2023-04-29T08:56:47.007Z,3.65
2023-04-29T08:58:08.512Z,3.36
2023-04-29T08:59:30.349Z,4.29
2023-04-29T09:00:52.407Z,2.71
2023-04-29T09:02:16.276Z,2.67
2023-04-29T09:04:01.195Z,7.13
2023-04-29T09:05:23.109Z,5.42
2023-04-29T09:06:45.070Z,7.47
2023-04-29T09:08:08.426Z,3.31
2023-04-29T09:09:30.541Z,2.34
2023-04-29T09:10:52.932Z,3.78
2023-04-29T09:12:14.903Z,51.17
2023-04-29T09:13:36.500Z,16.39
2023-04-29T09:14:59.801Z,8.68
2023-04-29T09:16:21.289Z,13.80
2023-04-29T09:17:45.187Z,16.23
2023-04-29T09:19:06.789Z,10.70
2023-04-29T09:20:29.528Z,6.07
2023-04-29T09:21:54.478Z,2.89
2023-04-29T09:23:16.522Z,5.70
2023-04-29T09:24:38.739Z,2.23
2023-04-29T09:26:00.563Z,7.96
2023-04-29T09:27:28.529Z,4.63
2023-04-29T09:29:11.864Z,4.77
2023-04-29T09:30:37.318Z,4.93
2023-04-29T09:31:59.183Z,6.43
2023-04-29T09:33:21.435Z,4.17
2023-04-29T09:34:45.014Z,2.52
2023-04-29T09:36:07.609Z,3.50
2023-04-29T09:37:30.157Z,4.83
2023-04-29T09:38:54.060Z,4.12
2023-04-29T09:40:32.476Z,5.95
2023-04-29T09:41:57.224Z,3.36
2023-04-29T09:43:19.064Z,4.63
2023-04-29T09:44:41.508Z,7.47
2023-04-29T09:46:03.356Z,4.77
2023-04-29T09:47:30.188Z,3.93
2023-04-29T09:48:51.937Z,3.87
2023-04-29T09:50:15.453Z,4.47
2023-04-29T09:53:00.856Z,7.79
2023-04-29T09:54:24.256Z,1.57
2023-04-29T09:57:13.390Z,4.12
2023-04-29T09:58:35.315Z,6.58
2023-04-29T09:59:56.685Z,5.27
2023-04-29T10:01:19.202Z,2.66
2023-04-29T10:02:47.419Z,11.41
2023-04-29T10:04:10.642Z,9.08
2023-04-29T10:05:33.170Z,5.11
2023-04-29T10:06:55.863Z,3.35
2023-04-29T10:08:18.306Z,5.29
2023-04-29T10:09:39.988Z,3.77
2023-04-29T10:11:03.370Z,2.02
2023-04-29T10:12:24.881Z,2.54
2023-04-29T10:13:47.079Z,4.01
2023-04-29T10:15:26.824Z,8.19
2023-04-29T10:16:50.515Z,2.01
2023-04-29T10:18:16.084Z,2.15
2023-04-29T10:19:54.996Z,2.24
2023-04-29T10:21:16.942Z,2.99
2023-04-29T10:22:48.987Z,2.80
2023-04-29T10:24:10.634Z,2.94
2023-04-29T10:25:31.768Z,2.97
2023-04-29T10:26:54.071Z,3.53
2023-04-29T10:28:15.186Z,2.97
2023-04-29T10:29:36.815Z,2.58
2023-04-29T10:31:02.816Z,2.91
2023-04-29T10:32:25.761Z,12.18
2023-04-29T10:33:48.221Z,4.24
2023-04-29T10:35:11.585Z,5.63
2023-04-29T10:36:33.624Z,2.13
2023-04-29T10:37:55.633Z,4.39
2023-04-29T10:40:37.491Z,2.99
2023-04-29T10:41:58.995Z,2.17
2023-04-29T10:43:24.488Z,9.06
2023-04-29T10:45:23.890Z,2.65
2023-04-29T10:46:46.308Z,5.91
2023-04-29T10:48:08.457Z,3.15
2023-04-29T10:49:36.587Z,4.77
2023-04-29T10:51:00.467Z,3.73
2023-04-29T10:52:22.515Z,7.56
2023-04-29T10:55:18.702Z,3.28
2023-04-29T10:56:47.895Z,4.09
2023-04-29T10:58:43.840Z,2.11
2023-04-29T11:00:07.733Z,2.84
2023-04-29T11:01:51.943Z,4.11
2023-04-29T11:03:14.255Z,6.04
2023-04-29T11:04:39.153Z,2.93
2023-04-29T11:07:28.796Z,2.70
2023-04-29T11:09:01.040Z,2.27
2023-04-29T11:10:29.172Z,4.34
2023-04-29T11:13:24.830Z,5.66
2023-04-29T11:14:49.634Z,5.91
2023-04-29T11:16:11.960Z,3.31
2023-04-29T11:17:47.701Z,3.51
2023-04-29T11:19:09.624Z,5.39
2023-04-29T11:20:31.826Z,3.49
2023-04-29T11:22:19.846Z,5.64
2023-04-29T11:23:41.740Z,3.84
2023-04-29T11:25:07.935Z,4.25
2023-04-29T11:26:30.777Z,1.87
2023-04-29T11:27:52.622Z,2.59
2023-04-29T11:29:14.342Z,3.06
2023-04-29T11:30:35.884Z,2.43
2023-04-29T11:32:01.619Z,3.38
2023-04-29T11:33:24.558Z,5.46
2023-04-29T11:34:46.315Z,2.87
2023-04-29T11:36:09.843Z,3.18
2023-04-29T11:37:31.425Z,4.54
2023-04-29T11:38:53.443Z,2.06
2023-04-29T11:40:15.691Z,3.06
2023-04-29T11:41:38.452Z,3.91
2023-04-29T11:43:00.432Z,3.26
2023-04-29T11:44:25.147Z,4.18
2023-04-29T11:45:46.689Z,4.96
2023-04-29T11:47:08.735Z,2.62
2023-04-29T11:48:30.147Z,5.27
2023-04-29T11:49:51.704Z,4.63
2023-04-29T11:51:12.618Z,7.48
2023-04-29T11:52:38.332Z,4.48
2023-04-29T11:54:01.225Z,9.73
2023-04-29T11:55:22.306Z,2.67
2023-04-29T11:56:43.876Z,3.66
2023-04-29T11:58:05.807Z,2.71
2023-04-29T11:59:28.049Z,3.91
2023-04-29T12:00:50.335Z,7.20
2023-04-29T12:02:13.049Z,1.31
2023-04-29T12:03:34.876Z,3.49
2023-04-29T12:04:57.353Z,3.12
2023-04-29T12:06:18.873Z,2.52
2023-04-29T12:07:42.309Z,2.20
2023-04-29T12:09:04.186Z,2.21
2023-04-29T12:10:26.161Z,2.09
2023-04-29T12:11:49.310Z,2.77
2023-04-29T12:13:11.472Z,3.71
2023-04-29T12:14:33.087Z,4.08
2023-04-29T12:15:54.771Z,3.07
2023-04-29T12:17:17.275Z,2.36
2023-04-29T12:18:38.963Z,3.46
2023-04-29T12:20:00.966Z,2.47
2023-04-29T12:21:22.892Z,3.44
2023-04-29T12:22:44.420Z,3.11
2023-04-29T12:24:06.566Z,13.62
2023-04-29T12:25:28.355Z,3.08
2023-04-29T12:26:49.967Z,2.99
2023-04-29T12:28:12.055Z,4.79
2023-04-29T12:29:33.178Z,3.58
2023-04-29T12:30:58.364Z,5.97
2023-04-29T12:32:23.237Z,4.73
2023-04-29T12:33:44.979Z,4.39
2023-04-29T12:35:10.204Z,3.37
2023-04-29T12:36:32.469Z,3.97
2023-04-29T12:37:54.554Z,10.62
2023-04-29T12:39:16.936Z,3.69
2023-04-29T12:40:40.230Z,9.39
2023-04-29T12:42:01.958Z,3.90
2023-04-29T12:44:39.826Z,2.95
2023-04-29T12:46:03.243Z,3.63
2023-04-29T12:47:24.815Z,2.29
2023-04-29T12:48:47.226Z,4.06
2023-04-29T12:50:11.831Z,5.80
2023-04-29T12:51:35.441Z,5.15
2023-04-29T12:52:57.134Z,3.27
2023-04-29T12:54:18.488Z,1.28
2023-04-29T12:55:40.881Z,2.21
2023-04-29T12:58:30.368Z,4.24
2023-04-29T12:59:52.210Z,3.05
2023-04-29T13:01:18.427Z,2.98
2023-04-29T13:02:39.005Z,2.43
2023-04-29T13:04:02.670Z,3.92
2023-04-29T13:05:24.357Z,1.98
2023-04-29T13:06:46.543Z,1.94
2023-04-29T13:08:08.469Z,11.67
2023-04-29T13:09:29.950Z,6.64
2023-04-29T13:10:51.942Z,3.46
2023-04-29T13:12:14.126Z,3.67
2023-04-29T13:13:35.235Z,3.24
2023-04-29T13:14:58.155Z,4.16
2023-04-29T13:16:20.286Z,4.74
2023-04-29T13:17:42.322Z,2.47
2023-04-29T13:19:18.001Z,4.05
2023-04-29T13:20:27.904Z,6.44
2023-04-29T13:21:49.485Z,4.24
2023-04-29T13:23:11.224Z,3.43
2023-04-29T13:24:33.277Z,2.87
2023-04-29T13:25:54.590Z,2.32
2023-04-29T13:27:15.750Z,5.67
2023-04-29T13:28:38.074Z,3.14
2023-04-29T13:29:59.979Z,3.07
2023-04-29T13:31:21.940Z,2.63
2023-04-29T13:32:49.785Z,2.08
2023-04-29T13:34:09.445Z,15.90
2023-04-29T13:35:29.971Z,4.93
2023-04-29T13:36:52.012Z,3.06
2023-04-29T13:38:13.864Z,6.74
2023-04-29T13:39:38.328Z,3.61
2023-04-29T13:41:00.673Z,5.08
2023-04-29T13:42:26.252Z,3.29
2023-04-29T13:43:49.777Z,3.86
2023-04-29T13:45:12.257Z,2.26
2023-04-29T13:46:34.812Z,3.64
2023-04-29T13:48:09.600Z,1.94
2023-04-29T13:51:04.762Z,3.08
2023-04-29T13:52:47.403Z,2.35
2023-04-29T13:55:30.053Z,11.86
2023-04-29T14:02:23.102Z,4.59
2023-04-29T14:03:18.727Z,3.92
2023-04-29T14:04:41.267Z,4.40
2023-04-29T14:06:04.667Z,3.39
2023-04-29T14:08:41.285Z,9.72
2023-04-29T14:10:06.487Z,3.24
2023-04-29T14:11:28.012Z,3.56
2023-04-29T14:12:49.959Z,4.01
2023-04-29T14:14:12.970Z,7.99
2023-04-29T14:15:35.099Z,10.33
2023-04-29T14:16:57.302Z,6.83
2023-04-29T14:18:20.287Z,3.06
2023-04-29T14:19:41.749Z,6.62
2023-04-29T14:21:03.382Z,7.59
2023-04-29T14:22:25.905Z,12.34
2023-04-29T14:23:50.060Z,11.56
2023-04-29T14:25:11.556Z,4.57
2023-04-29T14:26:33.961Z,5.34
2023-04-29T14:27:55.560Z,4.26
2023-04-29T14:29:17.591Z,7.96
2023-04-29T14:30:39.734Z,1.96
2023-04-29T14:32:01.408Z,5.04
2023-04-29T14:33:23.576Z,3.36
2023-04-29T14:34:45.703Z,4.21
2023-04-29T14:36:07.709Z,3.37
2023-04-29T14:37:29.477Z,3.70
2023-04-29T14:38:51.302Z,4.77
2023-04-29T14:40:14.350Z,2.34
2023-04-29T14:41:36.457Z,5.57
2023-04-29T14:42:58.714Z,4.99
2023-04-29T14:44:20.608Z,5.13
2023-04-29T14:45:42.125Z,8.87
2023-04-29T14:47:03.943Z,8.36
2023-04-29T14:48:25.534Z,5.75
2023-04-29T14:49:47.552Z,6.47
2023-04-29T14:51:09.543Z,2.94
2023-04-29T14:52:31.240Z,2.11
2023-04-29T14:53:53.108Z,3.04
2023-04-29T14:55:15.266Z,4.72
2023-04-29T14:56:36.948Z,2.46
2023-04-29T14:58:02.166Z,4.06
2023-04-29T14:59:24.174Z,2.21
2023-04-29T15:00:46.320Z,3.12
2023-04-29T15:02:08.519Z,4.36
2023-04-29T15:03:30.361Z,3.29
2023-04-29T15:04:52.425Z,2.00
2023-04-29T15:06:15.710Z,2.17
2023-04-29T15:07:37.487Z,4.53
2023-04-29T15:08:59.541Z,3.37
2023-04-29T15:10:22.809Z,3.21
2023-04-29T15:11:44.904Z,3.44
2023-04-29T15:13:06.404Z,2.36
2023-04-29T15:14:30.833Z,3.39
2023-04-29T15:15:52.572Z,3.61
2023-04-29T15:17:14.918Z,3.91
2023-04-29T15:18:37.017Z,5.61
2023-04-29T15:19:59.905Z,4.24
2023-04-29T15:21:21.542Z,6.00
2023-04-29T15:22:43.464Z,3.99
2023-04-29T15:24:08.955Z,6.14
2023-04-29T15:25:31.349Z,12.41
2023-04-29T15:28:16.643Z,6.55
2023-04-29T15:29:38.183Z,4.04
2023-04-29T15:31:00.153Z,4.22
2023-04-29T15:32:22.500Z,2.42
2023-04-29T15:33:44.182Z,3.64
2023-04-29T15:35:08.768Z,6.53
2023-04-29T15:36:31.416Z,7.21
2023-04-29T15:37:53.425Z,4.59
2023-04-29T15:39:15.193Z,4.51
2023-04-29T15:40:37.246Z,5.63
2023-04-29T15:42:00.529Z,4.26
2023-04-29T15:43:22.802Z,5.67
2023-04-29T15:44:45.713Z,8.29
2023-04-29T15:46:07.509Z,3.38
2023-04-29T15:47:29.366Z,4.64
2023-04-29T15:48:51.673Z,4.34
2023-04-29T15:50:14.008Z,4.68
2023-04-29T15:51:35.428Z,5.19
2023-04-29T15:52:56.813Z,3.44
2023-04-29T15:54:18.314Z,2.59
2023-04-29T15:55:40.320Z,4.48
2023-04-29T15:57:03.007Z,5.39
2023-04-29T15:58:24.691Z,3.18
2023-04-29T15:59:46.005Z,3.29
2023-04-29T16:01:07.519Z,3.67
2023-04-29T16:02:30.803Z,5.04
2023-04-29T16:03:52.009Z,4.93
2023-04-29T16:05:14.048Z,4.32
2023-04-29T16:06:35.870Z,3.69
2023-04-29T16:07:57.895Z,3.32
2023-04-29T16:09:20.135Z,3.41
2023-04-29T16:10:44.391Z,2.76
2023-04-29T16:12:06.069Z,3.05
2023-04-29T16:13:29.183Z,6.24
2023-04-29T16:14:51.188Z,6.38
2023-04-29T16:16:13.799Z,5.92
2023-04-29T16:17:35.439Z,7.81
2023-04-29T16:18:57.382Z,7.47
2023-04-29T16:20:19.133Z,3.37
2023-04-29T16:21:40.640Z,4.17
2023-04-29T16:23:01.724Z,4.44
2023-04-29T16:24:23.678Z,3.85
2023-04-29T16:25:44.786Z,5.76
2023-04-29T16:27:07.117Z,3.54
2023-04-29T16:28:29.430Z,5.01
2023-04-29T16:29:52.305Z,3.42
2023-04-29T16:31:14.315Z,5.36
2023-04-29T16:32:36.731Z,3.59
2023-04-29T16:33:59.117Z,6.91
2023-04-29T16:35:20.728Z,5.57
2023-04-29T16:36:42.520Z,7.07
2023-04-29T16:38:03.862Z,4.94
2023-04-29T16:39:26.169Z,5.36
2023-04-29T16:40:48.864Z,5.00
2023-04-29T16:42:10.834Z,5.63
2023-04-29T16:43:32.748Z,5.00
2023-04-29T16:44:55.202Z,3.99
2023-04-29T16:46:16.938Z,6.74
2023-04-29T16:47:39.343Z,7.94
2023-04-29T16:49:01.251Z,6.59
2023-04-29T16:50:23.377Z,8.54
2023-04-29T16:51:44.448Z,8.83
2023-04-29T16:53:06.932Z,3.41
2023-04-29T16:54:28.395Z,4.34
2023-04-29T16:55:50.474Z,7.18
2023-04-29T16:57:11.753Z,4.31
2023-04-29T16:58:33.864Z,4.89
2023-04-29T16:59:55.653Z,5.96
2023-04-29T17:01:17.445Z,5.29
2023-04-29T17:02:38.749Z,4.91
2023-04-29T17:04:00.227Z,5.63
2023-04-29T17:05:22.206Z,4.42
2023-04-29T17:06:43.617Z,5.10
2023-04-29T17:08:06.161Z,4.82
2023-04-29T17:09:27.862Z,3.59
2023-04-29T17:10:49.388Z,6.54
2023-04-29T17:12:11.159Z,4.04
2023-04-29T17:13:33.238Z,4.24
2023-04-29T17:14:54.965Z,4.74
2023-04-29T17:16:16.819Z,8.01
2023-04-29T17:17:38.371Z,6.93
2023-04-29T17:19:00.119Z,7.99
2023-04-29T17:20:22.396Z,3.04
2023-04-29T17:21:43.864Z,6.11
2023-04-29T17:23:06.224Z,6.12
2023-04-29T17:24:29.572Z,13.96
2023-04-29T17:25:51.778Z,13.43
2023-04-29T17:27:13.798Z,14.34
2023-04-29T17:28:35.285Z,9.43
2023-04-29T17:29:57.588Z,10.24
2023-04-29T17:31:20.130Z,7.37
2023-04-29T17:32:41.538Z,11.10
2023-04-29T17:34:03.330Z,7.13
2023-04-29T17:35:25.509Z,8.04
2023-04-29T17:36:47.706Z,6.19
2023-04-29T17:38:11.138Z,10.70
2023-04-29T17:39:33.810Z,5.31
2023-04-29T17:40:56.148Z,5.29
2023-04-29T17:42:18.010Z,6.08
2023-04-29T17:43:39.688Z,6.28
2023-04-29T17:45:00.785Z,5.71
2023-04-29T17:46:22.812Z,5.73
2023-04-29T17:47:44.951Z,5.69
2023-04-29T17:49:07.096Z,12.04
2023-04-29T17:50:28.568Z,9.57
2023-04-29T17:51:50.910Z,10.75
2023-04-29T17:53:13.882Z,5.95
2023-04-29T17:54:40.935Z,7.62
2023-04-29T17:56:02.460Z,3.45
2023-04-29T17:57:25.853Z,5.19
2023-04-29T17:58:47.463Z,6.27
2023-04-29T18:00:10.861Z,6.28
2023-04-29T18:01:32.885Z,7.22
2023-04-29T18:02:54.651Z,6.65
2023-04-29T18:04:16.573Z,6.32
2023-04-29T18:05:38.444Z,9.97
2023-04-29T18:07:02.346Z,6.75
2023-04-29T18:08:23.579Z,8.86
2023-04-29T18:09:46.272Z,12.61
2023-04-29T18:11:08.563Z,11.34
2023-04-29T18:12:29.842Z,5.82
2023-04-29T18:13:52.844Z,9.42
2023-04-29T18:15:15.000Z,8.88
2023-04-29T18:16:38.420Z,11.22
2023-04-29T18:19:21.426Z,12.57
2023-04-29T18:20:43.287Z,19.16
2023-04-29T18:22:06.511Z,14.76
2023-04-29T18:24:49.989Z,10.41
2023-04-29T18:26:12.360Z,8.02
2023-04-29T18:27:34.227Z,7.08
2023-04-29T18:28:55.828Z,6.65
2023-04-29T18:30:17.559Z,7.58
2023-04-29T18:31:39.692Z,6.51
2023-04-29T18:33:03.977Z,5.53
2023-04-29T18:35:46.492Z,8.72
2023-04-29T18:37:09.334Z,7.88
2023-04-29T18:38:30.588Z,5.26
2023-04-29T18:39:53.260Z,10.34
2023-04-29T18:41:15.017Z,7.39
2023-04-29T18:42:37.614Z,12.36
2023-04-29T18:43:58.838Z,11.00
2023-04-29T18:45:21.330Z,9.19
2023-04-29T18:46:42.434Z,12.82
2023-04-29T18:48:04.302Z,8.96
2023-04-29T18:49:26.474Z,9.36
2023-04-29T18:50:49.741Z,10.22